createdAt,value
2018-03-02T00:00:12.103Z,-6.10
2018-03-02T00:02:39.651Z,-6.10
2018-03-02T00:05:07.198Z,-6.00
2018-03-02T00:07:34.806Z,-6.10
2018-03-02T00:10:02.399Z,-6.10
2018-03-02T00:12:29.993Z,-6.00
2018-03-02T00:14:57.544Z,-6.00
2018-03-02T00:17:25.129Z,-6.00
2018-03-02T00:19:52.702Z,-6.00
2018-03-02T00:22:20.373Z,-6.00
2018-03-02T00:24:47.922Z,-6.00
2018-03-02T00:27:15.543Z,-6.00
2018-03-02T00:29:43.146Z,-6.00
2018-03-02T00:32:10.695Z,-6.00
2018-03-02T00:34:38.244Z,-6.10
2018-03-02T00:37:05.792Z,-6.00
2018-03-02T00:39:33.383Z,-6.10
2018-03-02T00:42:00.894Z,-6.10
2018-03-02T00:44:28.407Z,-6.10
2018-03-02T00:46:56.248Z,-6.10
2018-03-02T00:49:23.759Z,-6.10
2018-03-02T00:51:51.302Z,-6.10
2018-03-02T00:54:19.581Z,-6.10
2018-03-02T00:56:47.902Z,-6.10
2018-03-02T00:59:15.422Z,-6.10
2018-03-02T01:01:42.988Z,-6.10
2018-03-02T01:04:10.512Z,-6.10
2018-03-02T01:06:38.069Z,-6.10
2018-03-02T01:09:05.662Z,-6.00
2018-03-02T01:11:33.936Z,-6.00
2018-03-02T01:14:01.505Z,-6.10
2018-03-02T01:16:29.103Z,-6.00
2018-03-02T01:18:56.687Z,-6.00
2018-03-02T01:21:24.225Z,-6.00
2018-03-02T01:23:51.772Z,-6.00
2018-03-02T01:26:19.309Z,-6.00
2018-03-02T01:28:46.893Z,-6.10
2018-03-02T01:31:14.436Z,-6.10
2018-03-02T01:33:41.978Z,-6.10
2018-03-02T01:36:10.272Z,-6.10
2018-03-02T01:38:37.851Z,-6.10
2018-03-02T01:41:05.500Z,-6.10
2018-03-02T01:43:33.081Z,-6.00
2018-03-02T01:46:00.622Z,-6.00
2018-03-02T01:48:28.180Z,-6.00
2018-03-02T01:50:55.710Z,-6.10
2018-03-02T01:53:23.285Z,-6.00
2018-03-02T01:55:50.838Z,-6.00
2018-03-02T01:58:18.415Z,-6.00
2018-03-02T02:00:45.978Z,-6.00
2018-03-02T02:03:13.530Z,-6.00
2018-03-02T02:05:41.096Z,-6.00
2018-03-02T02:08:08.656Z,-6.00
2018-03-02T02:10:36.209Z,-6.00
2018-03-02T02:13:03.778Z,-6.00
2018-03-02T02:15:31.356Z,-6.00
2018-03-02T02:17:58.922Z,-6.10
2018-03-02T02:20:26.498Z,-6.10
2018-03-02T02:22:54.075Z,-6.10
2018-03-02T02:25:22.382Z,-6.10
2018-03-02T02:27:49.930Z,-6.20
2018-03-02T02:30:17.453Z,-6.10
2018-03-02T02:32:45.007Z,-6.10
2018-03-02T02:35:12.566Z,-6.10
2018-03-02T02:37:40.133Z,-6.10
2018-03-02T02:40:07.664Z,-6.10
2018-03-02T02:42:35.237Z,-6.10
2018-03-02T02:45:02.752Z,-6.10
2018-03-02T02:47:30.323Z,-6.10
2018-03-02T02:49:57.832Z,-6.10
2018-03-02T02:52:25.354Z,-6.10
2018-03-02T02:54:52.892Z,-6.10
2018-03-02T02:57:20.412Z,-6.00
2018-03-02T02:59:47.956Z,-6.00
2018-03-02T03:02:15.489Z,-6.00
2018-03-02T03:04:43.032Z,-6.10
2018-03-02T03:07:10.541Z,-6.10
2018-03-02T03:09:38.095Z,-6.10
2018-03-02T03:12:05.630Z,-6.10
2018-03-02T03:14:33.208Z,-6.00
2018-03-02T03:17:00.762Z,-6.00
2018-03-02T03:19:28.341Z,-6.00
2018-03-02T03:21:56.661Z,-6.00
2018-03-02T03:24:24.232Z,-6.10
2018-03-02T03:26:51.797Z,-6.00
2018-03-02T03:29:19.373Z,-6.10
2018-03-02T03:31:47.920Z,-6.10
2018-03-02T03:34:15.502Z,-6.00
2018-03-02T03:36:43.063Z,-6.00
2018-03-02T03:39:10.595Z,-6.10
2018-03-02T03:41:38.180Z,-6.10
2018-03-02T03:44:05.769Z,-6.10
2018-03-02T03:46:33.290Z,-6.10
2018-03-02T03:49:00.868Z,-6.10
2018-03-02T03:51:28.397Z,-6.10
2018-03-02T03:53:55.984Z,-6.10
2018-03-02T03:56:23.525Z,-6.10
2018-03-02T03:58:51.088Z,-6.10
2018-03-02T04:01:18.591Z,-6.20
2018-03-02T04:03:46.171Z,-6.20
2018-03-02T04:06:13.678Z,-6.20
2018-03-02T04:08:41.232Z,-6.10
2018-03-02T04:11:08.737Z,-6.20
2018-03-02T04:13:36.308Z,-6.10
2018-03-02T04:16:04.597Z,-6.10
2018-03-02T04:18:32.144Z,-6.20
2018-03-02T04:20:59.671Z,-6.20
2018-03-02T04:23:27.217Z,-6.20
2018-03-02T04:25:54.769Z,-6.10
2018-03-02T04:28:22.349Z,-6.10
2018-03-02T04:30:50.262Z,-6.10
2018-03-02T04:33:17.868Z,-6.10
2018-03-02T04:35:45.414Z,-6.10
2018-03-02T04:38:13.224Z,-6.10
2018-03-02T04:40:40.784Z,-6.10
2018-03-02T04:43:08.360Z,-6.10
2018-03-02T04:45:35.944Z,-6.10
2018-03-02T04:48:03.506Z,-6.10
2018-03-02T04:50:31.042Z,-6.00
2018-03-02T04:52:59.351Z,-6.00
2018-03-02T04:55:27.648Z,-6.00
2018-03-02T04:57:55.200Z,-6.10
2018-03-02T05:00:22.720Z,-6.10
2018-03-02T05:02:50.270Z,-6.00
2018-03-02T05:05:18.555Z,-6.00
2018-03-02T05:07:46.132Z,-6.00
2018-03-02T05:10:13.675Z,-6.10
2018-03-02T05:12:41.254Z,-6.00
2018-03-02T05:15:08.786Z,-6.00
2018-03-02T05:17:36.344Z,-6.00
2018-03-02T05:20:06.094Z,-6.00
2018-03-02T05:22:33.726Z,-6.00
2018-03-02T05:25:01.242Z,-6.00
2018-03-02T05:27:28.790Z,-6.00
2018-03-02T05:29:56.326Z,-6.10
2018-03-02T05:32:23.916Z,-6.10
2018-03-02T05:34:51.460Z,-6.10
2018-03-02T05:37:19.712Z,-6.00
2018-03-02T05:39:47.239Z,-6.10
2018-03-02T05:42:14.878Z,-6.10
2018-03-02T05:44:42.426Z,-6.00
2018-03-02T05:47:09.998Z,-6.10
2018-03-02T05:49:37.546Z,-6.10
2018-03-02T05:52:05.136Z,-6.10
2018-03-02T05:54:32.692Z,-6.10
2018-03-02T05:57:00.293Z,-6.10
2018-03-02T05:59:27.854Z,-6.10
2018-03-02T06:01:55.426Z,-6.10
2018-03-02T06:04:22.952Z,-6.00
2018-03-02T06:06:51.282Z,-6.00
2018-03-02T06:09:18.812Z,-6.10
2018-03-02T06:11:46.342Z,-6.00
2018-03-02T06:14:13.903Z,-6.00
2018-03-02T06:16:41.438Z,-6.00
2018-03-02T06:19:08.987Z,-6.00
2018-03-02T06:21:36.524Z,-6.00
2018-03-02T06:24:04.078Z,-6.00
2018-03-02T06:26:31.618Z,-6.00
2018-03-02T06:28:59.168Z,-6.00
2018-03-02T06:31:26.712Z,-6.00
2018-03-02T06:33:54.267Z,-6.00
2018-03-02T06:36:22.549Z,-5.90
2018-03-02T06:38:50.890Z,-6.00
2018-03-02T06:41:19.772Z,-6.00
2018-03-02T06:43:47.332Z,-6.00
2018-03-02T06:46:14.857Z,-6.00
2018-03-02T06:48:42.413Z,-6.00
2018-03-02T06:51:09.962Z,-6.00
2018-03-02T06:53:38.276Z,-6.00
2018-03-02T06:56:05.820Z,-6.00
2018-03-02T06:58:33.372Z,-6.00
2018-03-02T07:01:00.909Z,-5.90
2018-03-02T07:03:29.258Z,-5.90
2018-03-02T07:05:56.819Z,-6.00
2018-03-02T07:08:25.186Z,-5.90
2018-03-02T07:10:52.748Z,-5.90
2018-03-02T07:13:20.296Z,-5.80
2018-03-02T07:15:47.900Z,-5.80
2018-03-02T07:18:15.470Z,-5.80
2018-03-02T07:20:43.781Z,-5.80
2018-03-02T07:23:11.340Z,-5.90
2018-03-02T07:25:38.875Z,-5.90
2018-03-02T07:28:06.434Z,-5.80
2018-03-02T07:30:33.964Z,-5.80
2018-03-02T07:33:02.311Z,-5.80
2018-03-02T07:35:29.852Z,-5.90
2018-03-02T07:37:57.428Z,-5.80
2018-03-02T07:40:24.977Z,-5.90
2018-03-02T07:42:52.554Z,-5.90
2018-03-02T07:45:20.068Z,-5.80
2018-03-02T07:47:47.646Z,-5.80
2018-03-02T07:50:15.183Z,-5.80
2018-03-02T07:52:42.774Z,-5.80
2018-03-02T07:55:10.303Z,-5.70
2018-03-02T07:57:37.855Z,-5.70
2018-03-02T08:00:06.186Z,-5.70
2018-03-02T08:02:33.710Z,-5.70
2018-03-02T08:05:01.254Z,-5.60
2018-03-02T08:07:29.576Z,-5.60
2018-03-02T08:09:57.100Z,-5.70
2018-03-02T08:12:24.649Z,-5.60
2018-03-02T08:14:52.205Z,-5.70
2018-03-02T08:17:20.489Z,-5.60
2018-03-02T08:19:48.093Z,-5.70
2018-03-02T08:22:15.650Z,-5.60
2018-03-02T08:24:43.157Z,-5.60
2018-03-02T08:27:10.743Z,-5.60
2018-03-02T08:29:38.260Z,-5.60
2018-03-02T08:32:05.824Z,-5.60
2018-03-02T08:34:33.343Z,-5.60
2018-03-02T08:37:00.893Z,-5.60
2018-03-02T08:39:28.427Z,-5.60
2018-03-02T08:41:55.976Z,-5.50
2018-03-02T08:44:23.534Z,-5.50
2018-03-02T08:46:51.105Z,-5.50
2018-03-02T08:49:18.726Z,-5.50
2018-03-02T08:51:46.270Z,-5.50
2018-03-02T08:54:13.883Z,-5.50
2018-03-02T08:56:42.176Z,-5.40
2018-03-02T08:59:10.536Z,-5.30
2018-03-02T09:01:38.103Z,-5.40
2018-03-02T09:04:05.715Z,-5.40
2018-03-02T09:06:33.265Z,-5.30
2018-03-02T09:09:00.825Z,-5.40
2018-03-02T09:11:28.331Z,-5.40
2018-03-02T09:13:55.898Z,-5.40
2018-03-02T09:16:23.454Z,-5.30
2018-03-02T09:18:50.972Z,-5.30
2018-03-02T09:21:18.532Z,-5.30
2018-03-02T09:23:46.068Z,-5.30
2018-03-02T09:26:13.662Z,-5.30
2018-03-02T09:28:41.261Z,-5.30
2018-03-02T09:31:08.784Z,-5.20
2018-03-02T09:33:36.347Z,-5.20
2018-03-02T09:36:03.887Z,-5.20
2018-03-02T09:38:31.443Z,-5.20
2018-03-02T09:40:58.966Z,-5.10
2018-03-02T09:43:26.855Z,-5.10
2018-03-02T09:45:54.421Z,-5.10
2018-03-02T09:48:21.961Z,-5.00
2018-03-02T09:50:49.481Z,-5.10
2018-03-02T09:53:17.788Z,-5.00
2018-03-02T09:55:45.330Z,-5.10
2018-03-02T09:58:12.917Z,-5.00
2018-03-02T10:00:40.493Z,-5.00
2018-03-02T10:03:08.065Z,-5.00
2018-03-02T10:05:35.595Z,-5.00
2018-03-02T10:08:03.192Z,-4.90
2018-03-02T10:10:30.715Z,-4.90
2018-03-02T10:12:58.296Z,-4.90
2018-03-02T10:15:25.837Z,-4.90
2018-03-02T10:17:53.397Z,-4.90
2018-03-02T10:20:20.939Z,-4.90
2018-03-02T10:22:48.507Z,-4.90
2018-03-02T10:25:16.020Z,-4.80
2018-03-02T10:27:43.605Z,-4.90
2018-03-02T10:30:11.115Z,-4.80
2018-03-02T10:32:38.674Z,-4.80
2018-03-02T10:35:06.207Z,-4.80
2018-03-02T10:37:33.801Z,-4.70
2018-03-02T10:40:01.335Z,-4.70
2018-03-02T10:42:28.923Z,-4.70
2018-03-02T10:44:56.465Z,-4.70
2018-03-02T10:47:24.027Z,-4.70
2018-03-02T10:49:51.632Z,-4.60
2018-03-02T10:52:19.965Z,-4.60
2018-03-02T10:54:47.506Z,-4.60
2018-03-02T10:57:15.096Z,-4.50
2018-03-02T10:59:42.637Z,-4.50
2018-03-02T11:02:15.751Z,-4.50
2018-03-02T11:04:47.697Z,-4.50
2018-03-02T11:07:15.292Z,-4.50
2018-03-02T11:09:42.887Z,-4.50
2018-03-02T11:12:10.476Z,-4.50
2018-03-02T11:14:38.042Z,-4.50
2018-03-02T11:17:05.569Z,-4.40
2018-03-02T11:19:33.158Z,-4.40
2018-03-02T11:22:00.751Z,-4.40
2018-03-02T11:24:29.046Z,-4.40
2018-03-02T11:26:56.614Z,-4.40
2018-03-02T11:29:24.134Z,-4.30
2018-03-02T11:31:51.716Z,-4.30
2018-03-02T11:34:19.249Z,-4.30
2018-03-02T11:36:46.825Z,-4.20
2018-03-02T11:39:15.115Z,-4.20
2018-03-02T11:41:42.675Z,-4.30
2018-03-02T11:44:10.189Z,-4.20
2018-03-02T11:46:37.753Z,-4.20
2018-03-02T11:49:05.315Z,-4.20
2018-03-02T11:51:32.870Z,-4.20
2018-03-02T11:54:00.408Z,-4.20
2018-03-02T11:56:27.980Z,-4.10
2018-03-02T11:58:55.550Z,-4.20
2018-03-02T12:01:23.101Z,-4.10
2018-03-02T12:03:50.663Z,-4.10
2018-03-02T12:06:18.226Z,-4.10
2018-03-02T12:08:45.794Z,-4.10
2018-03-02T12:11:13.419Z,-4.10
2018-03-02T12:13:40.995Z,-4.10
2018-03-02T12:16:08.599Z,-4.00
2018-03-02T12:18:36.164Z,-4.00
2018-03-02T12:21:04.474Z,-4.00
2018-03-02T12:23:32.089Z,-4.10
2018-03-02T12:26:00.459Z,-4.00
2018-03-02T12:28:28.073Z,-4.10
2018-03-02T12:30:55.624Z,-4.00
2018-03-02T12:33:23.204Z,-4.10
2018-03-02T12:35:50.744Z,-4.10
2018-03-02T12:38:18.304Z,-4.10
2018-03-02T12:40:45.848Z,-4.10
2018-03-02T12:43:13.426Z,-4.20
2018-03-02T12:45:41.024Z,-4.20
2018-03-02T12:48:08.621Z,-4.20
2018-03-02T12:50:36.178Z,-4.20
2018-03-02T12:53:04.514Z,-4.30
2018-03-02T12:55:32.053Z,-4.30
2018-03-02T12:57:59.627Z,-4.30
2018-03-02T13:00:27.213Z,-4.30
2018-03-02T13:02:54.769Z,-4.30
2018-03-02T13:05:22.358Z,-4.30
2018-03-02T13:07:50.675Z,-4.30
2018-03-02T13:10:18.191Z,-4.30
2018-03-02T13:12:45.777Z,-4.30
2018-03-02T13:15:13.341Z,-4.30
2018-03-02T13:17:40.913Z,-4.30
2018-03-02T13:20:08.463Z,-4.30
2018-03-02T13:22:38.707Z,-4.30
2018-03-02T13:25:06.309Z,-4.30
2018-03-02T13:27:46.480Z,-4.30
2018-03-02T13:30:14.791Z,-4.20
2018-03-02T13:32:49.146Z,-4.30
2018-03-02T13:35:16.692Z,-4.30
2018-03-02T13:37:44.251Z,-4.30
2018-03-02T13:40:23.554Z,-4.30
2018-03-02T13:42:51.120Z,-4.30
2018-03-02T13:45:18.655Z,-4.30
2018-03-02T13:51:00.496Z,-4.30
2018-03-02T13:53:28.258Z,-4.30
2018-03-02T13:55:56.016Z,-4.30
2018-03-02T13:58:23.663Z,-4.30
2018-03-02T14:00:51.415Z,-4.30
2018-03-02T14:03:31.026Z,-4.30
2018-03-02T14:05:58.557Z,-4.30
2018-03-02T14:08:26.129Z,-4.30
2018-03-02T14:10:53.685Z,-4.30
2018-03-02T14:13:21.259Z,-4.30
2018-03-02T14:15:48.836Z,-4.30
2018-03-02T14:18:16.382Z,-4.30
2018-03-02T14:20:43.932Z,-4.30
2018-03-02T14:23:11.494Z,-4.30
2018-03-02T14:25:39.056Z,-4.30
2018-03-02T14:28:06.613Z,-4.30
2018-03-02T14:30:34.129Z,-4.30
2018-03-02T14:33:01.689Z,-4.30
2018-03-02T14:35:29.259Z,-4.30
2018-03-02T14:37:56.835Z,-4.30
2018-03-02T14:40:24.398Z,-4.30
2018-03-02T14:42:51.959Z,-4.30
2018-03-02T14:45:19.469Z,-4.30
2018-03-02T14:47:47.071Z,-4.30
2018-03-02T14:50:14.688Z,-4.30
2018-03-02T14:52:42.407Z,-4.20
2018-03-02T14:55:10.082Z,-4.30
2018-03-02T14:57:37.754Z,-4.20
2018-03-02T15:00:05.337Z,-4.20
2018-03-02T15:02:33.753Z,-4.20
2018-03-02T15:05:01.489Z,-4.30
2018-03-02T15:07:29.189Z,-4.30
2018-03-02T15:09:56.804Z,-4.30
2018-03-02T15:12:24.397Z,-4.20
2018-03-02T15:14:51.970Z,-4.20
2018-03-02T15:17:19.614Z,-4.20
2018-03-02T15:19:47.236Z,-4.20
2018-03-02T15:22:14.857Z,-4.20
2018-03-02T15:24:43.301Z,-4.20
2018-03-02T15:27:10.923Z,-4.20
2018-03-02T15:29:38.462Z,-4.20
2018-03-02T15:32:06.571Z,-4.20
2018-03-02T15:34:34.186Z,-4.20
2018-03-02T15:37:01.825Z,-4.20
2018-03-02T15:39:29.440Z,-4.20
2018-03-02T15:41:57.042Z,-4.20
2018-03-02T15:44:25.833Z,-4.20
2018-03-02T15:46:53.498Z,-4.20
2018-03-02T15:49:21.137Z,-4.20
2018-03-02T15:51:50.071Z,-4.20
2018-03-02T15:54:17.760Z,-4.20
2018-03-02T15:56:45.518Z,-4.20
2018-03-02T15:59:14.341Z,-4.20
2018-03-02T16:01:42.049Z,-4.20
2018-03-02T16:04:09.680Z,-4.20
2018-03-02T16:06:39.265Z,-4.20
2018-03-02T16:09:07.653Z,-4.20
2018-03-02T16:11:35.542Z,-4.20
2018-03-02T16:14:03.236Z,-4.20
2018-03-02T16:16:31.465Z,-4.20
2018-03-02T16:18:59.205Z,-4.20
2018-03-02T16:21:26.744Z,-4.20
2018-03-02T16:23:54.389Z,-4.20
2018-03-02T16:26:22.110Z,-4.20
2018-03-02T16:28:49.689Z,-4.20
2018-03-02T16:31:17.343Z,-4.20
2018-03-02T16:33:45.274Z,-4.20
2018-03-02T16:36:12.907Z,-4.20
2018-03-02T16:38:40.678Z,-4.20
2018-03-02T16:41:09.208Z,-4.30
2018-03-02T16:43:37.700Z,-4.30
2018-03-02T16:46:05.398Z,-4.30
2018-03-02T16:48:33.049Z,-4.20
2018-03-02T16:51:01.004Z,-4.30
2018-03-02T16:53:28.598Z,-4.30
2018-03-02T16:55:56.640Z,-4.30
2018-03-02T16:58:24.211Z,-4.30
2018-03-02T17:00:51.806Z,-4.30
2018-03-02T17:03:20.339Z,-4.30
2018-03-02T17:05:48.682Z,-4.30
2018-03-02T17:08:17.153Z,-4.30
2018-03-02T17:10:44.820Z,-4.40
2018-03-02T17:13:12.474Z,-4.30
2018-03-02T17:15:40.077Z,-4.30
2018-03-02T17:18:07.706Z,-4.40
2018-03-02T17:20:35.337Z,-4.40
2018-03-02T17:23:02.986Z,-4.40
2018-03-02T17:25:31.558Z,-4.40
2018-03-02T17:27:59.181Z,-4.40
2018-03-02T17:30:27.626Z,-4.30
2018-03-02T17:32:56.321Z,-4.40
2018-03-02T17:35:23.915Z,-4.30
2018-03-02T17:37:51.501Z,-4.30
2018-03-02T17:40:20.793Z,-4.30
2018-03-02T17:42:48.371Z,-4.40
2018-03-02T17:45:15.938Z,-4.40
2018-03-02T17:47:43.536Z,-4.40
2018-03-02T17:50:11.967Z,-4.40
2018-03-02T17:52:40.452Z,-4.50
2018-03-02T17:55:08.039Z,-4.40
2018-03-02T17:57:35.592Z,-4.40
2018-03-02T18:00:03.736Z,-4.40
2018-03-02T18:02:31.296Z,-4.50
2018-03-02T18:04:58.909Z,-4.50
2018-03-02T18:07:26.532Z,-4.50
2018-03-02T18:09:54.125Z,-4.50
2018-03-02T18:12:22.451Z,-4.60
2018-03-02T18:14:51.952Z,-4.60
2018-03-02T18:17:20.386Z,-4.60
2018-03-02T18:19:48.039Z,-4.60
2018-03-02T18:22:15.713Z,-4.60
2018-03-02T18:24:43.317Z,-4.60
2018-03-02T18:27:10.978Z,-4.60
2018-03-02T18:29:38.605Z,-4.60
2018-03-02T18:32:07.080Z,-4.70
2018-03-02T18:34:35.501Z,-4.70
2018-03-02T18:37:03.339Z,-4.70
2018-03-02T18:39:30.946Z,-4.70
2018-03-02T18:41:58.553Z,-4.60
2018-03-02T18:44:27.073Z,-4.60
2018-03-02T18:46:54.744Z,-4.70
2018-03-02T18:49:22.440Z,-4.70
2018-03-02T18:51:51.095Z,-4.70
2018-03-02T18:54:18.861Z,-4.70
2018-03-02T18:56:46.660Z,-4.70
2018-03-02T18:59:15.106Z,-4.70
2018-03-02T19:01:42.805Z,-4.70
2018-03-02T19:04:10.414Z,-4.70
2018-03-02T19:06:38.088Z,-4.70
2018-03-02T19:09:05.735Z,-4.70
2018-03-02T19:11:33.370Z,-4.70
2018-03-02T19:14:01.027Z,-4.70
2018-03-02T19:16:28.690Z,-4.70
2018-03-02T19:18:57.085Z,-4.60
2018-03-02T19:21:24.772Z,-4.70
2018-03-02T19:23:53.188Z,-4.60
2018-03-02T19:26:20.875Z,-4.60
2018-03-02T19:28:49.808Z,-4.60
2018-03-02T19:31:17.607Z,-4.70
2018-03-02T19:33:46.927Z,-4.60
2018-03-02T19:36:15.560Z,-4.60
2018-03-02T19:38:43.180Z,-4.70
2018-03-02T19:41:11.653Z,-4.60
2018-03-02T19:43:39.299Z,-4.60
2018-03-02T19:46:06.992Z,-4.60
2018-03-02T19:48:35.827Z,-4.60
2018-03-02T19:51:03.626Z,-4.70
2018-03-02T19:53:31.375Z,-4.60
2018-03-02T19:55:59.120Z,-4.60
2018-03-02T19:58:26.861Z,-4.60
2018-03-02T20:00:54.529Z,-4.60
2018-03-02T20:03:22.343Z,-4.60
2018-03-02T20:05:50.044Z,-4.60
2018-03-02T20:08:17.789Z,-4.60
2018-03-02T20:10:46.731Z,-4.60
2018-03-02T20:13:14.372Z,-4.60
2018-03-02T20:15:42.043Z,-4.60
2018-03-02T20:18:09.849Z,-4.60
2018-03-02T20:20:38.276Z,-4.60
2018-03-02T20:23:05.945Z,-4.60
2018-03-02T20:25:35.163Z,-4.50
2018-03-02T20:28:03.082Z,-4.60
2018-03-02T20:30:30.865Z,-4.60
2018-03-02T20:32:58.554Z,-4.60
2018-03-02T20:35:26.222Z,-4.60
2018-03-02T20:37:53.779Z,-4.60
2018-03-02T20:40:23.604Z,-4.60
2018-03-02T20:42:51.193Z,-4.60
2018-03-02T20:45:19.607Z,-4.50
2018-03-02T20:47:47.173Z,-4.60
2018-03-02T20:50:14.785Z,-4.50
2018-03-02T20:52:43.169Z,-4.50
2018-03-02T20:55:10.746Z,-4.60
2018-03-02T20:57:38.600Z,-4.50
2018-03-02T21:00:06.969Z,-4.50
2018-03-02T21:02:34.556Z,-4.60
2018-03-02T21:05:02.114Z,-4.50
2018-03-02T21:07:29.751Z,-4.50
2018-03-02T21:09:57.413Z,-4.50
2018-03-02T21:12:25.027Z,-4.50
2018-03-02T21:14:52.642Z,-4.50
2018-03-02T21:17:21.028Z,-4.50
2018-03-02T21:19:48.683Z,-4.50
2018-03-02T21:22:16.295Z,-4.50
2018-03-02T21:24:43.908Z,-4.50
2018-03-02T21:27:12.340Z,-4.50
2018-03-02T21:29:39.908Z,-4.50
2018-03-02T21:32:07.531Z,-4.50
2018-03-02T21:34:35.186Z,-4.50
2018-03-02T21:37:02.752Z,-4.50
2018-03-02T21:39:30.294Z,-4.50
2018-03-02T21:41:58.725Z,-4.50
2018-03-02T21:44:26.220Z,-4.60
2018-03-02T21:46:54.526Z,-4.50
2018-03-02T21:49:22.093Z,-4.60
2018-03-02T21:51:49.655Z,-4.50
2018-03-02T21:54:17.214Z,-4.50
2018-03-02T21:56:44.805Z,-4.50
2018-03-02T21:59:12.433Z,-4.50
2018-03-02T22:01:39.999Z,-4.50
2018-03-02T22:04:07.560Z,-4.50
2018-03-02T22:06:35.185Z,-4.60
2018-03-02T22:09:04.078Z,-4.50
2018-03-02T22:11:31.700Z,-4.50
2018-03-02T22:14:00.072Z,-4.50
2018-03-02T22:16:27.612Z,-4.60
2018-03-02T22:18:55.233Z,-4.50
2018-03-02T22:21:23.607Z,-4.60
2018-03-02T22:23:51.956Z,-4.60
2018-03-02T22:26:19.568Z,-4.60
2018-03-02T22:28:47.163Z,-4.60
2018-03-02T22:31:14.709Z,-4.60
2018-03-02T22:33:42.336Z,-4.50
2018-03-02T22:36:10.689Z,-4.50
2018-03-02T22:38:38.299Z,-4.60
2018-03-02T22:41:05.858Z,-4.60
2018-03-02T22:43:34.240Z,-4.60
2018-03-02T22:46:01.868Z,-4.60
2018-03-02T22:48:30.220Z,-4.60
2018-03-02T22:50:57.775Z,-4.60
2018-03-02T22:53:25.354Z,-4.60
2018-03-02T22:55:52.903Z,-4.60
2018-03-02T22:58:21.320Z,-4.60
2018-03-02T23:00:48.992Z,-4.60
2018-03-02T23:03:16.568Z,-4.50
2018-03-02T23:05:44.124Z,-4.50
2018-03-02T23:08:11.712Z,-4.50
2018-03-02T23:10:39.259Z,-4.50
2018-03-02T23:13:06.825Z,-4.50
2018-03-02T23:15:34.459Z,-4.50
2018-03-02T23:18:02.070Z,-4.50
2018-03-02T23:20:30.416Z,-4.50
2018-03-02T23:22:57.970Z,-4.50
2018-03-02T23:25:26.786Z,-4.50
2018-03-02T23:27:54.392Z,-4.50
2018-03-02T23:30:21.930Z,-4.50
2018-03-02T23:32:50.310Z,-4.50
2018-03-02T23:35:18.676Z,-4.50
2018-03-02T23:37:46.361Z,-4.50
2018-03-02T23:40:13.919Z,-4.50
2018-03-02T23:42:42.279Z,-4.50
2018-03-02T23:45:10.633Z,-4.50
2018-03-02T23:47:38.243Z,-4.50
2018-03-02T23:50:05.776Z,-4.50
2018-03-02T23:52:33.401Z,-4.50
2018-03-02T23:55:00.991Z,-4.50
2018-03-02T23:57:28.604Z,-4.50
2018-03-02T23:59:56.987Z,-4.70
